KDIK/DIK METAR and TAF weather

Enter ICAO airport designator
Station Type Date Time Source
KDIK METAR 2018/12/13 14:56 UTC NOAA

KDIK 131456Z AUTO 26009KT 10SM CLR M04/M07 A3001 RMK AO2 SLP190 T10391072 51009


Station Type Date Time Source
KDIK Decoded METAR 2018/12/13 14:56 UTC NOAA

THEODORE ROOSEVELT REGIONAL, ND, United States (KDIK) 46-48N 102-48W 788M
Dec 13, 2018 - 09:56 AM EST / 2018.12.13 1456 UTC
Wind: from the W (260 degrees) at 10 MPH (9 KT):0
Visibility: 10 mile(s):0
Sky conditions: clear
Temperature: 25.0 F (-3.9 C)
Windchill: 15 F (-9 C):1
Dew Point: 19.0 F (-7.2 C)
Relative Humidity: 77%
Pressure (altimeter): 30.01 in. Hg (1016 hPa)
Pressure tendency: 0.03 inches (0.9 hPa) higher than three hours ago
ob: KDIK 131456Z AUTO 26009KT 10SM CLR M04/M07 A3001 RMK AO2 SLP190 T10391072 51009
cycle: 15

Station Type Date Time Source
KDIK TAF 2018/12/13 12:30 UTC NOAA

TAF KDIK 131127Z 1312/1412 28010KT P6SM SKC
FM131400 26012G19KT P6SM SKC


Example: see airport list